createdAt,value
2023-02-19T00:02:24.936Z,7.90
2023-02-19T00:08:26.644Z,8.47
2023-02-19T00:14:28.502Z,7.54
2023-02-19T00:20:30.968Z,6.27
2023-02-19T00:26:33.433Z,7.09
2023-02-19T00:32:35.246Z,7.88
2023-02-19T00:38:38.336Z,8.19
2023-02-19T00:44:40.793Z,8.18
2023-02-19T00:50:43.234Z,8.35
2023-02-19T00:56:45.720Z,7.96
2023-02-19T01:02:48.496Z,8.22
2023-02-19T01:08:51.660Z,7.75
2023-02-19T01:14:54.089Z,7.34
2023-02-19T01:20:56.532Z,7.84
2023-02-19T01:26:58.986Z,7.71
2023-02-19T01:33:01.449Z,7.25
2023-02-19T01:39:08.913Z,7.26
2023-02-19T01:45:19.424Z,7.14
2023-02-19T01:51:22.875Z,6.44
2023-02-19T01:57:29.355Z,7.16
2023-02-19T02:03:32.822Z,6.36
2023-02-19T02:09:53.347Z,6.59
2023-02-19T02:16:25.015Z,7.37
2023-02-19T02:22:37.449Z,7.42
2023-02-19T02:29:07.027Z,6.77
2023-02-19T02:35:13.516Z,7.17
2023-02-19T02:41:17.928Z,7.18
2023-02-19T02:47:39.545Z,7.46
2023-02-19T02:54:16.139Z,6.73
2023-02-19T03:00:19.624Z,6.40
2023-02-19T03:06:25.125Z,7.01
2023-02-19T03:12:50.677Z,7.03
2023-02-19T03:19:14.353Z,7.22
2023-02-19T03:25:39.523Z,6.67
2023-02-19T03:31:44.416Z,7.41
2023-02-19T03:37:55.719Z,7.45
2023-02-19T03:44:01.197Z,7.48
2023-02-19T03:50:18.704Z,7.45
2023-02-19T03:56:40.213Z,7.25
2023-02-19T04:03:01.111Z,7.12
2023-02-19T04:09:09.320Z,7.36
2023-02-19T04:15:19.827Z,6.85
2023-02-19T04:21:24.288Z,6.57
2023-02-19T04:27:45.233Z,7.33
2023-02-19T04:33:52.750Z,7.31
2023-02-19T04:39:55.752Z,7.22
2023-02-19T04:46:02.262Z,7.09
2023-02-19T04:52:04.678Z,6.46
2023-02-19T04:58:07.110Z,5.96
2023-02-19T05:04:10.558Z,4.61
2023-02-19T05:10:13.102Z,5.52
2023-02-19T05:16:16.494Z,5.40
2023-02-19T05:22:18.478Z,5.05
2023-02-19T05:28:21.435Z,6.23
2023-02-19T05:34:23.856Z,6.16
2023-02-19T05:40:26.317Z,6.61
2023-02-19T05:46:30.821Z,6.48
2023-02-19T05:52:33.224Z,6.33
2023-02-19T05:58:35.741Z,5.95
2023-02-19T06:04:38.157Z,6.49
2023-02-19T06:10:41.606Z,6.70
2023-02-19T06:16:44.081Z,6.77
2023-02-19T06:22:45.924Z,6.55
2023-02-19T06:28:49.972Z,6.71
2023-02-19T06:34:52.489Z,6.83
2023-02-19T06:40:54.928Z,6.91
2023-02-19T06:46:57.458Z,7.08
2023-02-19T06:52:59.870Z,7.15
2023-02-19T06:59:06.316Z,6.40
2023-02-19T07:05:08.794Z,7.03
2023-02-19T07:11:11.546Z,6.63
2023-02-19T07:17:13.682Z,6.80
2023-02-19T07:23:16.120Z,6.87
2023-02-19T07:29:18.973Z,7.49
2023-02-19T07:35:20.772Z,7.29
2023-02-19T07:41:23.565Z,7.74
2023-02-19T07:47:26.039Z,7.30
2023-02-19T07:53:29.516Z,7.71
2023-02-19T07:59:31.962Z,6.76
2023-02-19T08:05:38.413Z,8.01
2023-02-19T08:11:58.971Z,8.36
2023-02-19T08:18:01.434Z,8.67
2023-02-19T08:24:03.904Z,8.20
2023-02-19T08:30:06.368Z,8.51
2023-02-19T08:36:09.848Z,8.23
2023-02-19T08:42:12.263Z,7.35
2023-02-19T08:48:15.748Z,7.28
2023-02-19T08:54:17.540Z,8.06
2023-02-19T09:00:19.515Z,7.11
2023-02-19T09:06:22.106Z,7.91
2023-02-19T09:12:24.563Z,7.80
2023-02-19T09:18:27.035Z,8.05
2023-02-19T09:24:29.488Z,8.34
2023-02-19T09:30:32.014Z,8.37
2023-02-19T09:36:34.463Z,8.51
2023-02-19T09:42:36.688Z,9.14
2023-02-19T09:48:39.346Z,9.25
2023-02-19T09:54:44.774Z,8.01
2023-02-19T10:00:50.242Z,8.81
2023-02-19T10:06:53.703Z,8.99
2023-02-19T10:13:07.176Z,9.25
2023-02-19T10:19:15.691Z,7.96
2023-02-19T10:25:25.198Z,9.33
2023-02-19T10:31:27.772Z,9.35
2023-02-19T10:37:32.133Z,8.64
2023-02-19T10:43:42.648Z,8.82
2023-02-19T10:49:47.137Z,8.82
2023-02-19T10:55:49.580Z,8.34
2023-02-19T11:01:59.118Z,8.91
2023-02-19T11:08:01.558Z,8.41
2023-02-19T11:14:19.082Z,9.07
2023-02-19T11:20:21.557Z,8.04
2023-02-19T11:26:28.096Z,8.36
2023-02-19T11:32:31.574Z,7.59
2023-02-19T11:38:34.066Z,8.29
2023-02-19T11:45:23.681Z,8.25
2023-02-19T11:51:41.212Z,8.09
2023-02-19T11:57:48.713Z,8.19
2023-02-19T12:04:18.264Z,7.03
2023-02-19T12:10:34.752Z,7.88
2023-02-19T12:16:52.015Z,8.18
2023-02-19T12:23:05.794Z,8.13
2023-02-19T12:29:17.305Z,8.05
2023-02-19T12:35:39.932Z,7.94
2023-02-19T12:41:52.362Z,7.98
2023-02-19T12:48:21.922Z,7.69
2023-02-19T12:54:38.434Z,8.04
2023-02-19T13:00:50.508Z,7.80
2023-02-19T13:06:56.435Z,8.01
2023-02-19T13:13:04.947Z,7.93
2023-02-19T13:19:06.729Z,8.16
2023-02-19T13:25:10.240Z,8.12
2023-02-19T13:31:59.745Z,8.14
2023-02-19T13:38:04.003Z,7.53
2023-02-19T13:44:11.510Z,8.20
2023-02-19T13:50:26.005Z,8.72
2023-02-19T13:56:34.781Z,8.76
2023-02-19T14:02:36.639Z,8.50
2023-02-19T14:08:51.391Z,8.77
2023-02-19T14:14:56.949Z,8.99
2023-02-19T14:21:18.514Z,8.06
2023-02-19T14:27:21.653Z,9.03
2023-02-19T14:33:37.469Z,8.46
2023-02-19T14:39:43.275Z,8.70
2023-02-19T14:45:55.414Z,9.03
2023-02-19T14:52:01.893Z,8.11
2023-02-19T14:58:14.431Z,8.83
2023-02-19T15:04:35.979Z,8.74
2023-02-19T15:10:41.376Z,8.44
2023-02-19T15:16:43.872Z,8.32
2023-02-19T15:22:48.783Z,7.32
2023-02-19T15:29:01.280Z,7.23
2023-02-19T15:35:05.362Z,7.73
2023-02-19T15:41:08.975Z,7.70
2023-02-19T15:47:22.316Z,7.50
2023-02-19T15:53:30.787Z,7.42
2023-02-19T15:59:47.293Z,6.79
2023-02-19T16:06:15.882Z,7.16
2023-02-19T16:12:24.364Z,7.19
2023-02-19T16:18:26.855Z,7.18
2023-02-19T16:24:37.313Z,7.37
2023-02-19T16:30:39.868Z,6.90
2023-02-19T16:36:44.242Z,7.20
2023-02-19T16:42:49.733Z,7.45
2023-02-19T16:48:52.182Z,7.66
2023-02-19T16:54:54.646Z,7.48
2023-02-19T17:00:57.200Z,7.27
2023-02-19T17:07:00.575Z,6.97
2023-02-19T17:13:03.038Z,7.42
2023-02-19T17:19:16.541Z,7.22
2023-02-19T17:25:19.043Z,7.39
2023-02-19T17:31:21.597Z,6.84
2023-02-19T17:37:23.965Z,6.25
2023-02-19T17:43:26.458Z,6.88
2023-02-19T17:49:28.895Z,6.99
2023-02-19T17:55:31.346Z,6.54
2023-02-19T18:01:33.838Z,5.56
2023-02-19T18:07:36.274Z,5.02
2023-02-19T18:13:40.615Z,5.33
2023-02-19T18:19:47.467Z,4.77
2023-02-19T18:25:49.640Z,5.34
2023-02-19T18:31:54.551Z,4.61
2023-02-19T18:37:59.448Z,5.21
2023-02-19T18:44:02.037Z,5.11
2023-02-19T18:50:04.500Z,4.80
2023-02-19T18:56:09.961Z,5.00
2023-02-19T19:02:13.418Z,4.11
2023-02-19T19:08:15.910Z,4.28
2023-02-19T19:14:18.365Z,4.36
2023-02-19T19:20:22.397Z,4.53
2023-02-19T19:26:24.562Z,4.20
2023-02-19T19:32:26.634Z,4.24
2023-02-19T19:38:28.424Z,4.12
2023-02-19T19:44:30.732Z,4.21
2023-02-19T19:50:33.165Z,3.63
2023-02-19T19:56:43.814Z,4.32
2023-02-19T20:02:48.203Z,4.15
2023-02-19T20:08:50.647Z,4.20
2023-02-19T20:14:53.122Z,4.31
2023-02-19T20:20:55.564Z,3.55
2023-02-19T20:26:59.335Z,4.30
2023-02-19T20:33:01.093Z,3.96
2023-02-19T20:39:03.411Z,4.07
2023-02-19T20:45:06.104Z,4.18
2023-02-19T20:51:07.886Z,3.83
2023-02-19T20:57:13.426Z,4.13
2023-02-19T21:03:17.843Z,4.08
2023-02-19T21:09:22.273Z,4.07
2023-02-19T21:15:31.534Z,3.82
2023-02-19T21:21:41.318Z,3.57
2023-02-19T21:27:45.743Z,3.75
2023-02-19T21:33:59.183Z,2.65
2023-02-19T21:40:19.757Z,1.90
2023-02-19T21:46:28.722Z,2.60
2023-02-19T21:52:31.695Z,3.40
2023-02-19T21:58:34.175Z,3.41
2023-02-19T22:04:36.636Z,3.22
2023-02-19T22:10:42.078Z,3.32
2023-02-19T22:16:44.600Z,3.25
2023-02-19T22:22:47.039Z,3.08
2023-02-19T22:28:50.466Z,2.57
2023-02-19T22:34:53.925Z,2.35
2023-02-19T22:40:56.421Z,3.14
2023-02-19T22:46:58.916Z,2.46
2023-02-19T22:53:01.292Z,3.24
2023-02-19T22:59:03.752Z,3.16
2023-02-19T23:05:06.216Z,2.59
2023-02-19T23:11:11.700Z,3.32
2023-02-19T23:17:22.719Z,2.96
2023-02-19T23:23:25.640Z,2.28
2023-02-19T23:29:29.651Z,2.99
2023-02-19T23:35:32.556Z,2.71
2023-02-19T23:41:34.985Z,3.08
2023-02-19T23:47:37.443Z,3.00
2023-02-19T23:53:39.980Z,2.94
2023-02-19T23:59:42.388Z,2.87
